sensor_id;sensor_type;location;lat;lon;timestamp;temperature;humidity
262;DHT22;114;48.260;10.988;2022-07-23T00:00:55;22.20;1.00
262;DHT22;114;48.260;10.988;2022-07-23T00:03:21;22.30;1.00
262;DHT22;114;48.260;10.988;2022-07-23T00:05:46;22.30;1.00
262;DHT22;114;48.260;10.988;2022-07-23T00:08:12;22.20;1.00
262;DHT22;114;48.260;10.988;2022-07-23T00:10:40;22.20;1.40
262;DHT22;114;48.260;10.988;2022-07-23T00:13:07;22.20;1.60
262;DHT22;114;48.260;10.988;2022-07-23T00:15:32;22.20;1.00
262;DHT22;114;48.260;10.988;2022-07-23T00:17:58;22.20;1.00
262;DHT22;114;48.260;10.988;2022-07-23T00:20:24;22.30;1.00
262;DHT22;114;48.260;10.988;2022-07-23T00:22:52;22.40;1.00
262;DHT22;114;48.260;10.988;2022-07-23T00:25:18;22.50;1.00
262;DHT22;114;48.260;10.988;2022-07-23T00:27:45;22.50;1.00
262;DHT22;114;48.260;10.988;2022-07-23T00:30:12;22.50;1.00
262;DHT22;114;48.260;10.988;2022-07-23T00:32:51;22.50;1.00
262;DHT22;114;48.260;10.988;2022-07-23T00:35:20;22.60;1.00
262;DHT22;114;48.260;10.988;2022-07-23T00:37:46;22.60;1.00
262;DHT22;114;48.260;10.988;2022-07-23T00:40:12;22.60;1.00
262;DHT22;114;48.260;10.988;2022-07-23T00:42:39;22.70;1.00
262;DHT22;114;48.260;10.988;2022-07-23T00:45:06;22.70;1.00
262;DHT22;114;48.260;10.988;2022-07-23T00:47:33;22.70;1.00
262;DHT22;114;48.260;10.988;2022-07-23T00:49:59;22.70;1.00
262;DHT22;114;48.260;10.988;2022-07-23T00:52:25;22.30;1.00
262;DHT22;114;48.260;10.988;2022-07-23T00:54:51;21.80;1.50
262;DHT22;114;48.260;10.988;2022-07-23T00:57:17;21.30;7.00
262;DHT22;114;48.260;10.988;2022-07-23T00:59:43;20.80;5.10
262;DHT22;114;48.260;10.988;2022-07-23T01:02:10;20.70;13.20
262;DHT22;114;48.260;10.988;2022-07-23T01:04:36;20.20;15.70
262;DHT22;114;48.260;10.988;2022-07-23T01:07:02;20.00;20.60
262;DHT22;114;48.260;10.988;2022-07-23T01:09:29;19.40;31.30
262;DHT22;114;48.260;10.988;2022-07-23T01:11:56;19.40;28.60
262;DHT22;114;48.260;10.988;2022-07-23T01:14:22;19.20;37.80
262;DHT22;114;48.260;10.988;2022-07-23T01:16:49;19.10;42.00
262;DHT22;114;48.260;10.988;2022-07-23T01:19:16;19.00;46.70
262;DHT22;114;48.260;10.988;2022-07-23T01:21:44;18.60;57.10
262;DHT22;114;48.260;10.988;2022-07-23T01:24:11;18.50;69.50
262;DHT22;114;48.260;10.988;2022-07-23T01:26:37;18.30;77.30
262;DHT22;114;48.260;10.988;2022-07-23T01:29:04;18.20;80.50
262;DHT22;114;48.260;10.988;2022-07-23T01:31:31;18.00;82.10
262;DHT22;114;48.260;10.988;2022-07-23T01:33:57;18.00;83.60
262;DHT22;114;48.260;10.988;2022-07-23T01:36:23;18.00;84.10
262;DHT22;114;48.260;10.988;2022-07-23T01:38:50;18.00;89.40
262;DHT22;114;48.260;10.988;2022-07-23T01:41:16;18.10;90.00
262;DHT22;114;48.260;10.988;2022-07-23T01:43:42;18.00;91.40
262;DHT22;114;48.260;10.988;2022-07-23T01:46:07;18.00;92.30
262;DHT22;114;48.260;10.988;2022-07-23T01:48:33;17.90;92.90
262;DHT22;114;48.260;10.988;2022-07-23T01:50:59;17.90;93.70
262;DHT22;114;48.260;10.988;2022-07-23T01:53:25;17.80;93.70
262;DHT22;114;48.260;10.988;2022-07-23T01:55:51;17.80;94.50
262;DHT22;114;48.260;10.988;2022-07-23T01:58:17;17.80;94.90
262;DHT22;114;48.260;10.988;2022-07-23T02:00:42;17.80;94.70
262;DHT22;114;48.260;10.988;2022-07-23T02:03:08;17.80;95.10
262;DHT22;114;48.260;10.988;2022-07-23T02:05:34;17.80;95.40
262;DHT22;114;48.260;10.988;2022-07-23T02:08:00;17.90;95.40
262;DHT22;114;48.260;10.988;2022-07-23T02:10:33;17.90;96.10
262;DHT22;114;48.260;10.988;2022-07-23T02:12:59;17.90;97.50
262;DHT22;114;48.260;10.988;2022-07-23T02:15:24;17.90;97.50
262;DHT22;114;48.260;10.988;2022-07-23T02:17:50;17.90;97.40
262;DHT22;114;48.260;10.988;2022-07-23T02:20:16;17.90;97.90
262;DHT22;114;48.260;10.988;2022-07-23T02:22:42;17.90;97.90
262;DHT22;114;48.260;10.988;2022-07-23T02:25:08;18.00;98.60
262;DHT22;114;48.260;10.988;2022-07-23T02:27:35;18.10;99.30
262;DHT22;114;48.260;10.988;2022-07-23T02:30:06;18.10;98.80
262;DHT22;114;48.260;10.988;2022-07-23T02:32:32;18.10;99.00
262;DHT22;114;48.260;10.988;2022-07-23T02:34:58;18.20;98.10
262;DHT22;114;48.260;10.988;2022-07-23T02:37:25;18.20;97.00
262;DHT22;114;48.260;10.988;2022-07-23T02:39:50;18.30;95.30
262;DHT22;114;48.260;10.988;2022-07-23T02:42:17;18.30;93.40
262;DHT22;114;48.260;10.988;2022-07-23T02:44:43;18.20;94.30
262;DHT22;114;48.260;10.988;2022-07-23T02:47:09;18.20;94.30
262;DHT22;114;48.260;10.988;2022-07-23T02:49:36;18.10;94.30
262;DHT22;114;48.260;10.988;2022-07-23T02:52:02;18.00;95.70
262;DHT22;114;48.260;10.988;2022-07-23T02:54:28;17.90;97.30
262;DHT22;114;48.260;10.988;2022-07-23T02:56:54;18.00;98.50
262;DHT22;114;48.260;10.988;2022-07-23T02:59:19;17.90;99.60
262;DHT22;114;48.260;10.988;2022-07-23T03:01:45;17.90;99.90
262;DHT22;114;48.260;10.988;2022-07-23T03:04:12;17.90;99.90
262;DHT22;114;48.260;10.988;2022-07-23T03:06:38;17.90;99.90
262;DHT22;114;48.260;10.988;2022-07-23T03:09:04;17.80;99.90
262;DHT22;114;48.260;10.988;2022-07-23T03:11:30;17.80;99.90
262;DHT22;114;48.260;10.988;2022-07-23T03:13:56;17.80;99.90
262;DHT22;114;48.260;10.988;2022-07-23T03:16:22;17.70;99.90
262;DHT22;114;48.260;10.988;2022-07-23T03:18:48;17.80;99.90
262;DHT22;114;48.260;10.988;2022-07-23T03:21:14;17.80;98.40
262;DHT22;114;48.260;10.988;2022-07-23T03:23:40;17.80;97.90
262;DHT22;114;48.260;10.988;2022-07-23T03:26:06;17.70;97.30
262;DHT22;114;48.260;10.988;2022-07-23T03:28:32;17.70;95.10
262;DHT22;114;48.260;10.988;2022-07-23T03:30:58;17.70;95.00
262;DHT22;114;48.260;10.988;2022-07-23T03:33:24;17.70;94.20
262;DHT22;114;48.260;10.988;2022-07-23T03:35:50;17.70;94.50
262;DHT22;114;48.260;10.988;2022-07-23T03:38:16;17.70;95.30
262;DHT22;114;48.260;10.988;2022-07-23T03:40:42;17.60;95.20
262;DHT22;114;48.260;10.988;2022-07-23T03:43:08;17.60;94.60
262;DHT22;114;48.260;10.988;2022-07-23T03:45:34;17.70;94.10
262;DHT22;114;48.260;10.988;2022-07-23T03:48:00;17.70;94.60
262;DHT22;114;48.260;10.988;2022-07-23T03:50:26;17.60;96.00
262;DHT22;114;48.260;10.988;2022-07-23T03:52:52;17.70;96.00
262;DHT22;114;48.260;10.988;2022-07-23T03:55:18;17.60;95.30
262;DHT22;114;48.260;10.988;2022-07-23T03:57:44;17.60;94.80
262;DHT22;114;48.260;10.988;2022-07-23T04:00:10;17.60;94.10
262;DHT22;114;48.260;10.988;2022-07-23T04:02:37;17.70;92.10
262;DHT22;114;48.260;10.988;2022-07-23T04:05:03;17.70;92.40
262;DHT22;114;48.260;10.988;2022-07-23T04:07:30;17.70;92.10
262;DHT22;114;48.260;10.988;2022-07-23T04:09:56;17.70;91.40
262;DHT22;114;48.260;10.988;2022-07-23T04:12:22;17.70;91.00
262;DHT22;114;48.260;10.988;2022-07-23T04:14:47;17.80;94.10
262;DHT22;114;48.260;10.988;2022-07-23T04:17:13;17.80;95.40
262;DHT22;114;48.260;10.988;2022-07-23T04:19:39;17.80;94.80
262;DHT22;114;48.260;10.988;2022-07-23T04:22:07;17.80;95.80
262;DHT22;114;48.260;10.988;2022-07-23T04:24:33;17.80;96.60
262;DHT22;114;48.260;10.988;2022-07-23T04:26:59;17.80;96.30
262;DHT22;114;48.260;10.988;2022-07-23T04:29:25;17.80;96.60
262;DHT22;114;48.260;10.988;2022-07-23T04:31:51;17.80;96.10
262;DHT22;114;48.260;10.988;2022-07-23T04:34:17;17.80;97.70
262;DHT22;114;48.260;10.988;2022-07-23T04:36:43;17.80;98.00
262;DHT22;114;48.260;10.988;2022-07-23T04:39:09;17.80;97.20
262;DHT22;114;48.260;10.988;2022-07-23T04:41:34;17.80;97.70
262;DHT22;114;48.260;10.988;2022-07-23T04:44:02;17.90;98.00
262;DHT22;114;48.260;10.988;2022-07-23T04:46:28;17.90;98.00
262;DHT22;114;48.260;10.988;2022-07-23T04:48:57;17.80;96.30
262;DHT22;114;48.260;10.988;2022-07-23T04:51:26;17.90;96.40
262;DHT22;114;48.260;10.988;2022-07-23T04:53:52;17.90;97.20
262;DHT22;114;48.260;10.988;2022-07-23T04:56:18;17.80;96.50
262;DHT22;114;48.260;10.988;2022-07-23T04:58:43;17.80;95.90
262;DHT22;114;48.260;10.988;2022-07-23T05:01:09;17.80;95.30
262;DHT22;114;48.260;10.988;2022-07-23T05:03:35;17.80;95.70
262;DHT22;114;48.260;10.988;2022-07-23T05:06:01;17.80;94.80
262;DHT22;114;48.260;10.988;2022-07-23T05:08:31;17.80;93.70
262;DHT22;114;48.260;10.988;2022-07-23T05:10:57;17.80;90.30
262;DHT22;114;48.260;10.988;2022-07-23T05:13:23;17.90;91.70
262;DHT22;114;48.260;10.988;2022-07-23T05:15:48;17.90;91.30
262;DHT22;114;48.260;10.988;2022-07-23T05:18:14;17.90;91.50
262;DHT22;114;48.260;10.988;2022-07-23T05:20:40;18.20;91.50
262;DHT22;114;48.260;10.988;2022-07-23T05:23:07;18.30;90.40
262;DHT22;114;48.260;10.988;2022-07-23T05:25:33;18.30;89.60
262;DHT22;114;48.260;10.988;2022-07-23T05:27:59;18.30;87.70
262;DHT22;114;48.260;10.988;2022-07-23T05:30:25;18.40;86.30
262;DHT22;114;48.260;10.988;2022-07-23T05:32:50;18.50;85.90
262;DHT22;114;48.260;10.988;2022-07-23T05:35:16;18.60;86.20
262;DHT22;114;48.260;10.988;2022-07-23T05:37:42;18.60;87.20
262;DHT22;114;48.260;10.988;2022-07-23T05:40:09;18.60;90.50
262;DHT22;114;48.260;10.988;2022-07-23T05:42:39;18.60;89.60
262;DHT22;114;48.260;10.988;2022-07-23T05:45:06;18.60;86.80
262;DHT22;114;48.260;10.988;2022-07-23T05:47:45;18.60;83.40
262;DHT22;114;48.260;10.988;2022-07-23T05:50:12;18.60;85.50
262;DHT22;114;48.260;10.988;2022-07-23T05:52:39;18.60;87.20
262;DHT22;114;48.260;10.988;2022-07-23T05:55:06;18.60;88.50
262;DHT22;114;48.260;10.988;2022-07-23T05:57:33;18.50;90.40
262;DHT22;114;48.260;10.988;2022-07-23T05:59:58;18.50;90.80
262;DHT22;114;48.260;10.988;2022-07-23T06:02:24;18.50;91.10
262;DHT22;114;48.260;10.988;2022-07-23T06:04:50;18.40;91.20
262;DHT22;114;48.260;10.988;2022-07-23T06:07:16;18.30;91.40
262;DHT22;114;48.260;10.988;2022-07-23T06:09:42;18.40;91.50
262;DHT22;114;48.260;10.988;2022-07-23T06:12:08;18.40;93.80
262;DHT22;114;48.260;10.988;2022-07-23T06:14:34;18.40;93.00
262;DHT22;114;48.260;10.988;2022-07-23T06:16:59;18.40;91.40
262;DHT22;114;48.260;10.988;2022-07-23T06:19:25;18.50;88.30
262;DHT22;114;48.260;10.988;2022-07-23T06:21:51;18.60;75.80
262;DHT22;114;48.260;10.988;2022-07-23T06:24:17;18.70;67.40
262;DHT22;114;48.260;10.988;2022-07-23T06:26:43;18.70;70.70
262;DHT22;114;48.260;10.988;2022-07-23T06:29:09;18.80;73.20
262;DHT22;114;48.260;10.988;2022-07-23T06:31:34;18.70;72.60
262;DHT22;114;48.260;10.988;2022-07-23T06:34:00;18.60;73.70
262;DHT22;114;48.260;10.988;2022-07-23T06:36:26;18.60;77.10
262;DHT22;114;48.260;10.988;2022-07-23T06:38:52;18.70;76.70
262;DHT22;114;48.260;10.988;2022-07-23T06:41:18;18.70;77.60
262;DHT22;114;48.260;10.988;2022-07-23T06:43:43;18.80;77.00
262;DHT22;114;48.260;10.988;2022-07-23T06:46:09;18.90;78.00
262;DHT22;114;48.260;10.988;2022-07-23T06:48:35;18.90;73.30
262;DHT22;114;48.260;10.988;2022-07-23T06:51:02;18.90;76.10
262;DHT22;114;48.260;10.988;2022-07-23T06:53:28;19.00;71.40
262;DHT22;114;48.260;10.988;2022-07-23T06:55:54;19.00;74.90
262;DHT22;114;48.260;10.988;2022-07-23T06:58:23;19.00;68.70
262;DHT22;114;48.260;10.988;2022-07-23T07:00:48;19.00;79.40
262;DHT22;114;48.260;10.988;2022-07-23T07:03:18;19.10;71.80
262;DHT22;114;48.260;10.988;2022-07-23T07:05:47;19.40;75.70
262;DHT22;114;48.260;10.988;2022-07-23T07:08:17;19.40;74.10
262;DHT22;114;48.260;10.988;2022-07-23T07:10:49;19.30;64.90
262;DHT22;114;48.260;10.988;2022-07-23T07:13:16;19.10;61.40
262;DHT22;114;48.260;10.988;2022-07-23T07:15:49;19.10;67.10
262;DHT22;114;48.260;10.988;2022-07-23T07:18:23;19.10;69.60
262;DHT22;114;48.260;10.988;2022-07-23T07:20:50;18.90;67.80
262;DHT22;114;48.260;10.988;2022-07-23T07:23:15;18.90;69.70
262;DHT22;114;48.260;10.988;2022-07-23T07:25:53;18.90;71.60
262;DHT22;114;48.260;10.988;2022-07-23T07:28:35;18.80;74.50
262;DHT22;114;48.260;10.988;2022-07-23T07:31:04;18.90;77.90
262;DHT22;114;48.260;10.988;2022-07-23T07:33:30;18.80;78.50
262;DHT22;114;48.260;10.988;2022-07-23T07:35:59;18.70;77.20
262;DHT22;114;48.260;10.988;2022-07-23T07:38:26;18.80;76.30
262;DHT22;114;48.260;10.988;2022-07-23T07:40:51;18.80;75.40
262;DHT22;114;48.260;10.988;2022-07-23T07:43:31;18.80;70.00
262;DHT22;114;48.260;10.988;2022-07-23T07:46:13;18.80;78.70
262;DHT22;114;48.260;10.988;2022-07-23T07:48:45;18.70;82.40
262;DHT22;114;48.260;10.988;2022-07-23T07:51:22;18.80;84.70
262;DHT22;114;48.260;10.988;2022-07-23T07:53:48;19.00;86.00
262;DHT22;114;48.260;10.988;2022-07-23T07:56:14;19.00;89.50
262;DHT22;114;48.260;10.988;2022-07-23T07:58:39;19.20;87.20
262;DHT22;114;48.260;10.988;2022-07-23T08:01:05;19.40;79.80
262;DHT22;114;48.260;10.988;2022-07-23T08:03:32;19.40;74.70
262;DHT22;114;48.260;10.988;2022-07-23T08:05:57;19.60;81.30
262;DHT22;114;48.260;10.988;2022-07-23T08:08:24;19.70;83.30
262;DHT22;114;48.260;10.988;2022-07-23T08:10:50;19.80;84.00
262;DHT22;114;48.260;10.988;2022-07-23T08:13:16;19.60;81.80
262;DHT22;114;48.260;10.988;2022-07-23T08:15:43;19.60;88.00
262;DHT22;114;48.260;10.988;2022-07-23T08:18:09;19.70;87.80
262;DHT22;114;48.260;10.988;2022-07-23T08:20:35;19.70;81.10
262;DHT22;114;48.260;10.988;2022-07-23T08:23:07;19.70;80.30
262;DHT22;114;48.260;10.988;2022-07-23T08:25:35;20.00;76.20
262;DHT22;114;48.260;10.988;2022-07-23T08:28:04;20.20;74.10
262;DHT22;114;48.260;10.988;2022-07-23T08:30:31;20.20;73.10
262;DHT22;114;48.260;10.988;2022-07-23T08:33:00;20.40;72.80
262;DHT22;114;48.260;10.988;2022-07-23T08:35:33;20.60;71.60
262;DHT22;114;48.260;10.988;2022-07-23T08:38:03;20.80;67.10
262;DHT22;114;48.260;10.988;2022-07-23T08:40:32;21.20;61.10
262;DHT22;114;48.260;10.988;2022-07-23T08:42:58;21.30;55.80
262;DHT22;114;48.260;10.988;2022-07-23T08:45:26;21.50;52.90
262;DHT22;114;48.260;10.988;2022-07-23T08:47:56;21.80;43.20
262;DHT22;114;48.260;10.988;2022-07-23T08:50:24;22.00;32.30
262;DHT22;114;48.260;10.988;2022-07-23T08:52:51;22.10;39.10
262;DHT22;114;48.260;10.988;2022-07-23T08:55:22;22.20;41.80
262;DHT22;114;48.260;10.988;2022-07-23T08:57:58;22.30;34.50
262;DHT22;114;48.260;10.988;2022-07-23T09:00:24;22.20;29.10
262;DHT22;114;48.260;10.988;2022-07-23T09:02:50;22.30;33.40
262;DHT22;114;48.260;10.988;2022-07-23T09:05:17;22.50;30.60
262;DHT22;114;48.260;10.988;2022-07-23T09:10:56;23.00;28.60
262;DHT22;114;48.260;10.988;2022-07-23T09:13:29;23.20;27.80
262;DHT22;114;48.260;10.988;2022-07-23T09:15:59;23.40;22.90
262;DHT22;114;48.260;10.988;2022-07-23T09:18:38;23.50;20.60
262;DHT22;114;48.260;10.988;2022-07-23T09:21:18;23.60;19.20
262;DHT22;114;48.260;10.988;2022-07-23T09:23:55;24.10;10.90
262;DHT22;114;48.260;10.988;2022-07-23T09:34:25;24.10;1.00
262;DHT22;114;48.260;10.988;2022-07-23T09:37:12;24.20;1.00
262;DHT22;114;48.260;10.988;2022-07-23T09:39:42;24.10;1.00
262;DHT22;114;48.260;10.988;2022-07-23T09:42:23;24.20;1.00
262;DHT22;114;48.260;10.988;2022-07-23T09:44:54;24.30;1.00
262;DHT22;114;48.260;10.988;2022-07-23T09:47:21;24.70;1.00
262;DHT22;114;48.260;10.988;2022-07-23T09:52:32;24.80;1.00
262;DHT22;114;48.260;10.988;2022-07-23T09:54:59;24.90;1.00
262;DHT22;114;48.260;10.988;2022-07-23T09:57:27;25.30;1.00
262;DHT22;114;48.260;10.988;2022-07-23T09:59:53;25.00;1.00
262;DHT22;114;48.260;10.988;2022-07-23T10:02:20;25.10;1.00
262;DHT22;114;48.260;10.988;2022-07-23T10:04:47;25.00;1.00
262;DHT22;114;48.260;10.988;2022-07-23T10:07:14;25.20;1.00
262;DHT22;114;48.260;10.988;2022-07-23T10:09:42;25.40;1.00
262;DHT22;114;48.260;10.988;2022-07-23T10:12:13;25.50;1.00
262;DHT22;114;48.260;10.988;2022-07-23T10:14:54;25.90;1.00
262;DHT22;114;48.260;10.988;2022-07-23T10:17:21;25.70;1.00
262;DHT22;114;48.260;10.988;2022-07-23T10:19:47;25.60;1.00
262;DHT22;114;48.260;10.988;2022-07-23T10:22:13;25.50;1.00
262;DHT22;114;48.260;10.988;2022-07-23T10:27:44;25.80;1.00
262;DHT22;114;48.260;10.988;2022-07-23T10:33:17;25.90;1.00
262;DHT22;114;48.260;10.988;2022-07-23T10:35:59;26.50;1.00
262;DHT22;114;48.260;10.988;2022-07-23T10:38:35;26.40;1.00
262;DHT22;114;48.260;10.988;2022-07-23T10:41:04;26.20;1.00
262;DHT22;114;48.260;10.988;2022-07-23T10:43:31;26.50;1.00
262;DHT22;114;48.260;10.988;2022-07-23T10:46:21;25.70;1.00
262;DHT22;114;48.260;10.988;2022-07-23T10:52:25;25.90;1.00
262;DHT22;114;48.260;10.988;2022-07-23T10:55:38;25.60;1.00
262;DHT22;114;48.260;10.988;2022-07-23T10:57:49;25.10;1.00
262;DHT22;114;48.260;10.988;2022-07-23T11:00:26;25.20;1.00
262;DHT22;114;48.260;10.988;2022-07-23T11:02:54;24.90;1.00
262;DHT22;114;48.260;10.988;2022-07-23T11:05:22;25.00;1.00
262;DHT22;114;48.260;10.988;2022-07-23T11:10:45;24.90;1.00
262;DHT22;114;48.260;10.988;2022-07-23T11:32:07;25.90;1.00
262;DHT22;114;48.260;10.988;2022-07-23T11:34:56;25.90;1.00
262;DHT22;114;48.260;10.988;2022-07-23T11:37:38;25.70;1.00
262;DHT22;114;48.260;10.988;2022-07-23T11:40:17;26.50;1.00
262;DHT22;114;48.260;10.988;2022-07-23T11:43:09;26.80;1.00
262;DHT22;114;48.260;10.988;2022-07-23T11:45:42;26.60;1.00
262;DHT22;114;48.260;10.988;2022-07-23T11:48:10;26.80;1.00
262;DHT22;114;48.260;10.988;2022-07-23T11:50:41;27.00;1.00
262;DHT22;114;48.260;10.988;2022-07-23T11:53:06;27.00;1.00
262;DHT22;114;48.260;10.988;2022-07-23T11:55:32;27.80;1.00
262;DHT22;114;48.260;10.988;2022-07-23T11:57:58;27.50;1.00
262;DHT22;114;48.260;10.988;2022-07-23T12:00:26;27.50;1.00
262;DHT22;114;48.260;10.988;2022-07-23T12:02:56;27.40;1.00
262;DHT22;114;48.260;10.988;2022-07-23T12:05:32;27.60;1.00
262;DHT22;114;48.260;10.988;2022-07-23T12:08:00;28.10;1.00
262;DHT22;114;48.260;10.988;2022-07-23T12:10:35;29.90;1.00
262;DHT22;114;48.260;10.988;2022-07-23T12:13:13;29.50;1.00
262;DHT22;114;48.260;10.988;2022-07-23T12:15:45;28.50;1.00
262;DHT22;114;48.260;10.988;2022-07-23T12:18:14;28.70;1.00
262;DHT22;114;48.260;10.988;2022-07-23T12:20:43;28.60;1.00
262;DHT22;114;48.260;10.988;2022-07-23T12:23:10;28.20;1.00
262;DHT22;114;48.260;10.988;2022-07-23T12:25:39;27.80;1.00
262;DHT22;114;48.260;10.988;2022-07-23T12:30:45;27.00;1.00
262;DHT22;114;48.260;10.988;2022-07-23T12:33:22;26.60;1.00
262;DHT22;114;48.260;10.988;2022-07-23T12:35:49;26.30;1.00
262;DHT22;114;48.260;10.988;2022-07-23T12:38:17;26.10;1.00
262;DHT22;114;48.260;10.988;2022-07-23T12:43:11;26.10;1.00
262;DHT22;114;48.260;10.988;2022-07-23T12:51:01;26.00;1.00
262;DHT22;114;48.260;10.988;2022-07-23T12:53:33;26.20;1.00
262;DHT22;114;48.260;10.988;2022-07-23T12:56:09;26.70;1.00
262;DHT22;114;48.260;10.988;2022-07-23T12:58:48;27.70;1.00
262;DHT22;114;48.260;10.988;2022-07-23T13:06:23;26.90;1.00
262;DHT22;114;48.260;10.988;2022-07-23T13:08:49;27.20;1.00
262;DHT22;114;48.260;10.988;2022-07-23T13:11:15;27.20;1.00
262;DHT22;114;48.260;10.988;2022-07-23T13:13:42;27.70;1.00
262;DHT22;114;48.260;10.988;2022-07-23T13:16:08;28.10;1.00
262;DHT22;114;48.260;10.988;2022-07-23T13:18:34;28.70;1.00
262;DHT22;114;48.260;10.988;2022-07-23T13:21:00;29.10;1.00
262;DHT22;114;48.260;10.988;2022-07-23T13:23:27;30.50;1.00
262;DHT22;114;48.260;10.988;2022-07-23T13:25:53;30.50;1.00
262;DHT22;114;48.260;10.988;2022-07-23T13:28:20;31.20;1.00
262;DHT22;114;48.260;10.988;2022-07-23T13:30:51;30.80;1.00
262;DHT22;114;48.260;10.988;2022-07-23T13:33:19;29.50;1.00
262;DHT22;114;48.260;10.988;2022-07-23T13:35:45;29.70;1.00
262;DHT22;114;48.260;10.988;2022-07-23T13:38:11;28.70;1.00
262;DHT22;114;48.260;10.988;2022-07-23T13:40:39;27.70;1.00
262;DHT22;114;48.260;10.988;2022-07-23T13:43:09;27.60;1.00
262;DHT22;114;48.260;10.988;2022-07-23T13:45:36;27.60;1.00
262;DHT22;114;48.260;10.988;2022-07-23T13:48:02;27.50;1.00
262;DHT22;114;48.260;10.988;2022-07-23T13:50:28;27.40;1.00
262;DHT22;114;48.260;10.988;2022-07-23T13:52:54;28.20;1.00
262;DHT22;114;48.260;10.988;2022-07-23T13:55:19;29.20;1.00
262;DHT22;114;48.260;10.988;2022-07-23T13:57:45;29.50;1.00
262;DHT22;114;48.260;10.988;2022-07-23T14:00:11;29.90;1.00
262;DHT22;114;48.260;10.988;2022-07-23T14:02:39;29.30;1.00
262;DHT22;114;48.260;10.988;2022-07-23T14:05:07;27.60;1.00
262;DHT22;114;48.260;10.988;2022-07-23T14:07:34;28.30;1.00
262;DHT22;114;48.260;10.988;2022-07-23T14:10:00;28.10;1.00
262;DHT22;114;48.260;10.988;2022-07-23T14:12:26;28.70;1.00
262;DHT22;114;48.260;10.988;2022-07-23T14:14:52;28.80;1.00
262;DHT22;114;48.260;10.988;2022-07-23T14:17:18;29.10;1.00
262;DHT22;114;48.260;10.988;2022-07-23T14:19:44;29.10;1.00
262;DHT22;114;48.260;10.988;2022-07-23T14:22:10;28.90;1.00
262;DHT22;114;48.260;10.988;2022-07-23T14:24:36;30.00;1.00
262;DHT22;114;48.260;10.988;2022-07-23T14:27:03;30.90;1.00
262;DHT22;114;48.260;10.988;2022-07-23T14:29:29;30.50;1.00
262;DHT22;114;48.260;10.988;2022-07-23T14:31:55;30.70;1.00
262;DHT22;114;48.260;10.988;2022-07-23T14:34:21;30.30;1.00
262;DHT22;114;48.260;10.988;2022-07-23T14:36:47;30.20;1.00
262;DHT22;114;48.260;10.988;2022-07-23T14:39:13;30.70;1.00
262;DHT22;114;48.260;10.988;2022-07-23T14:41:39;31.70;1.00
262;DHT22;114;48.260;10.988;2022-07-23T14:44:05;31.50;1.00
262;DHT22;114;48.260;10.988;2022-07-23T14:46:30;31.30;1.00
262;DHT22;114;48.260;10.988;2022-07-23T14:48:56;31.10;1.00
262;DHT22;114;48.260;10.988;2022-07-23T14:51:22;31.30;1.00
262;DHT22;114;48.260;10.988;2022-07-23T14:53:48;31.80;1.00
262;DHT22;114;48.260;10.988;2022-07-23T14:56:13;32.30;1.00
262;DHT22;114;48.260;10.988;2022-07-23T14:58:40;31.80;1.00
262;DHT22;114;48.260;10.988;2022-07-23T15:01:06;31.60;1.00
262;DHT22;114;48.260;10.988;2022-07-23T15:03:32;31.60;1.00
262;DHT22;114;48.260;10.988;2022-07-23T15:05:58;31.50;1.00
262;DHT22;114;48.260;10.988;2022-07-23T15:08:25;29.90;1.00
262;DHT22;114;48.260;10.988;2022-07-23T15:10:51;28.50;1.00
262;DHT22;114;48.260;10.988;2022-07-23T15:13:17;27.80;1.00
262;DHT22;114;48.260;10.988;2022-07-23T15:15:43;27.20;1.00
262;DHT22;114;48.260;10.988;2022-07-23T15:18:09;26.90;1.00
262;DHT22;114;48.260;10.988;2022-07-23T15:20:35;26.60;1.00
262;DHT22;114;48.260;10.988;2022-07-23T15:23:03;26.40;1.00
262;DHT22;114;48.260;10.988;2022-07-23T15:25:28;26.30;1.00
262;DHT22;114;48.260;10.988;2022-07-23T15:27:54;26.10;1.00
262;DHT22;114;48.260;10.988;2022-07-23T15:30:20;26.00;1.00
262;DHT22;114;48.260;10.988;2022-07-23T15:32:46;25.50;1.00
262;DHT22;114;48.260;10.988;2022-07-23T15:35:11;25.40;1.00
262;DHT22;114;48.260;10.988;2022-07-23T15:37:37;25.40;1.00
262;DHT22;114;48.260;10.988;2022-07-23T15:40:03;25.20;1.00
262;DHT22;114;48.260;10.988;2022-07-23T15:42:31;25.20;1.00
262;DHT22;114;48.260;10.988;2022-07-23T15:44:57;25.20;1.00
262;DHT22;114;48.260;10.988;2022-07-23T15:47:23;25.00;1.00
262;DHT22;114;48.260;10.988;2022-07-23T15:49:49;25.00;1.00
262;DHT22;114;48.260;10.988;2022-07-23T15:52:14;25.00;1.00
262;DHT22;114;48.260;10.988;2022-07-23T15:54:40;25.10;1.00
262;DHT22;114;48.260;10.988;2022-07-23T15:57:06;25.20;1.00
262;DHT22;114;48.260;10.988;2022-07-23T15:59:32;25.20;1.00
262;DHT22;114;48.260;10.988;2022-07-23T16:01:58;25.40;1.00
262;DHT22;114;48.260;10.988;2022-07-23T16:04:25;26.10;1.00
262;DHT22;114;48.260;10.988;2022-07-23T16:06:51;27.70;1.00
262;DHT22;114;48.260;10.988;2022-07-23T16:09:16;29.50;1.00
262;DHT22;114;48.260;10.988;2022-07-23T16:11:46;30.60;1.00
262;DHT22;114;48.260;10.988;2022-07-23T16:14:11;30.80;1.00
262;DHT22;114;48.260;10.988;2022-07-23T16:16:38;30.10;1.00
262;DHT22;114;48.260;10.988;2022-07-23T16:19:05;30.80;1.00
262;DHT22;114;48.260;10.988;2022-07-23T16:21:31;30.40;1.00
262;DHT22;114;48.260;10.988;2022-07-23T16:23:56;30.50;1.00
262;DHT22;114;48.260;10.988;2022-07-23T16:26:22;31.10;1.00
262;DHT22;114;48.260;10.988;2022-07-23T16:28:48;31.10;1.00
262;DHT22;114;48.260;10.988;2022-07-23T16:31:17;31.80;1.00
262;DHT22;114;48.260;10.988;2022-07-23T16:33:43;31.70;1.00
262;DHT22;114;48.260;10.988;2022-07-23T16:36:09;30.70;1.00
262;DHT22;114;48.260;10.988;2022-07-23T16:38:36;30.50;1.00
262;DHT22;114;48.260;10.988;2022-07-23T16:41:03;30.90;1.00
262;DHT22;114;48.260;10.988;2022-07-23T16:43:29;31.00;1.00
262;DHT22;114;48.260;10.988;2022-07-23T16:45:59;30.60;1.00
262;DHT22;114;48.260;10.988;2022-07-23T16:48:25;30.90;1.00
262;DHT22;114;48.260;10.988;2022-07-23T16:50:51;30.70;1.00
262;DHT22;114;48.260;10.988;2022-07-23T16:53:17;30.30;1.00
262;DHT22;114;48.260;10.988;2022-07-23T16:55:43;30.30;1.00
262;DHT22;114;48.260;10.988;2022-07-23T16:58:09;29.90;1.00
262;DHT22;114;48.260;10.988;2022-07-23T17:00:35;29.10;1.00
262;DHT22;114;48.260;10.988;2022-07-23T17:03:02;29.30;1.00
262;DHT22;114;48.260;10.988;2022-07-23T17:05:28;28.90;1.00
262;DHT22;114;48.260;10.988;2022-07-23T17:07:54;28.40;1.00
262;DHT22;114;48.260;10.988;2022-07-23T17:10:20;27.80;1.00
262;DHT22;114;48.260;10.988;2022-07-23T17:12:47;27.60;1.00
262;DHT22;114;48.260;10.988;2022-07-23T17:15:18;27.50;1.00
262;DHT22;114;48.260;10.988;2022-07-23T17:17:44;27.40;1.00
262;DHT22;114;48.260;10.988;2022-07-23T17:20:10;27.20;1.00
262;DHT22;114;48.260;10.988;2022-07-23T17:22:36;26.90;1.00
262;DHT22;114;48.260;10.988;2022-07-23T17:25:03;26.80;1.00
262;DHT22;114;48.260;10.988;2022-07-23T17:27:35;26.60;1.00
262;DHT22;114;48.260;10.988;2022-07-23T17:30:01;26.60;1.00